sensor_id;sensor_type;location;lat;lon;timestamp;pressure;altitude;pressure_sealevel;temperature;humidity
13029;BME280;6581;42.662;23.402;2022-08-11T00:00:01;95458.59;;;20.53;83.01
13029;BME280;6581;42.662;23.402;2022-08-11T00:02:33;95456.50;;;20.60;82.50
13029;BME280;6581;42.662;23.402;2022-08-11T00:05:04;95452.28;;;20.59;83.08
13029;BME280;6581;42.662;23.402;2022-08-11T00:07:34;95453.31;;;20.65;82.75
13029;BME280;6581;42.662;23.402;2022-08-11T00:10:11;95460.72;;;20.61;82.40
13029;BME280;6581;42.662;23.402;2022-08-11T00:12:40;95461.41;;;20.65;82.46
13029;BME280;6581;42.662;23.402;2022-08-11T00:15:09;95452.25;;;20.43;83.54
13029;BME280;6581;42.662;23.402;2022-08-11T00:17:37;95448.63;;;20.33;84.04
13029;BME280;6581;42.662;23.402;2022-08-11T00:20:08;95451.91;;;20.41;84.19
13029;BME280;6581;42.662;23.402;2022-08-11T00:22:38;95448.38;;;20.44;83.92
13029;BME280;6581;42.662;23.402;2022-08-11T00:25:10;95456.41;;;20.48;83.89
13029;BME280;6581;42.662;23.402;2022-08-11T00:28:03;95455.16;;;20.32;84.40
13029;BME280;6581;42.662;23.402;2022-08-11T00:30:38;95454.81;;;20.30;85.08
13029;BME280;6581;42.662;23.402;2022-08-11T00:33:06;95445.84;;;20.17;85.69
13029;BME280;6581;42.662;23.402;2022-08-11T00:35:34;95443.91;;;20.18;85.91
13029;BME280;6581;42.662;23.402;2022-08-11T00:38:02;95438.25;;;20.12;85.89
13029;BME280;6581;42.662;23.402;2022-08-11T00:40:36;95438.75;;;20.07;86.41
13029;BME280;6581;42.662;23.402;2022-08-11T00:43:17;95437.44;;;20.15;86.08
13029;BME280;6581;42.662;23.402;2022-08-11T00:46:15;95441.78;;;20.09;86.53
13029;BME280;6581;42.662;23.402;2022-08-11T00:48:50;95454.25;;;20.00;87.12
13029;BME280;6581;42.662;23.402;2022-08-11T00:51:35;95446.25;;;19.96;87.79
13029;BME280;6581;42.662;23.402;2022-08-11T00:57:35;95443.09;;;20.01;88.04
13029;BME280;6581;42.662;23.402;2022-08-11T01:00:12;95450.47;;;19.97;88.40
13029;BME280;6581;42.662;23.402;2022-08-11T01:02:51;95454.69;;;19.98;88.25
13029;BME280;6581;42.662;23.402;2022-08-11T01:06:02;95444.63;;;20.02;88.38
13029;BME280;6581;42.662;23.402;2022-08-11T01:11:55;95452.03;;;19.95;88.66
13029;BME280;6581;42.662;23.402;2022-08-11T01:14:45;95448.59;;;19.74;89.56
13029;BME280;6581;42.662;23.402;2022-08-11T01:18:09;95446.72;;;19.71;89.89
13029;BME280;6581;42.662;23.402;2022-08-11T01:21:06;95447.63;;;19.65;90.45
13029;BME280;6581;42.662;23.402;2022-08-11T01:27:03;95442.94;;;19.69;90.59
13029;BME280;6581;42.662;23.402;2022-08-11T01:33:38;95433.97;;;19.56;91.21
13029;BME280;6581;42.662;23.402;2022-08-11T01:46:03;95433.97;;;19.56;91.23
13029;BME280;6581;42.662;23.402;2022-08-11T01:48:40;95428.91;;;19.58;91.27
13029;BME280;6581;42.662;23.402;2022-08-11T01:51:18;95434.28;;;19.58;91.40
13029;BME280;6581;42.662;23.402;2022-08-11T01:53:55;95432.72;;;19.60;91.04
13029;BME280;6581;42.662;23.402;2022-08-11T01:56:41;95433.28;;;19.52;91.53
13029;BME280;6581;42.662;23.402;2022-08-11T01:59:16;95442.50;;;19.51;92.03
13029;BME280;6581;42.662;23.402;2022-08-11T02:01:59;95442.81;;;19.53;91.85
13029;BME280;6581;42.662;23.402;2022-08-11T02:04:31;95441.34;;;19.52;91.69
13029;BME280;6581;42.662;23.402;2022-08-11T02:07:09;95434.28;;;19.58;91.86
13029;BME280;6581;42.662;23.402;2022-08-11T02:09:49;95423.44;;;19.65;91.57
13029;BME280;6581;42.662;23.402;2022-08-11T02:12:43;95432.59;;;19.67;91.48
13029;BME280;6581;42.662;23.402;2022-08-11T02:15:19;95426.88;;;19.65;91.32
13029;BME280;6581;42.662;23.402;2022-08-11T02:17:52;95432.94;;;19.69;91.10
13029;BME280;6581;42.662;23.402;2022-08-11T02:20:26;95429.91;;;19.67;91.06
13029;BME280;6581;42.662;23.402;2022-08-11T02:23:26;95444.78;;;19.72;91.31
13029;BME280;6581;42.662;23.402;2022-08-11T02:26:17;95442.56;;;19.67;91.64
13029;BME280;6581;42.662;23.402;2022-08-11T02:28:54;95427.22;;;19.67;91.55
13029;BME280;6581;42.662;23.402;2022-08-11T02:31:32;95426.81;;;19.69;91.77
13029;BME280;6581;42.662;23.402;2022-08-11T02:34:29;95439.97;;;19.63;92.00
13029;BME280;6581;42.662;23.402;2022-08-11T02:37:02;95433.06;;;19.62;91.91
13029;BME280;6581;42.662;23.402;2022-08-11T02:39:45;95435.41;;;19.60;92.06
13029;BME280;6581;42.662;23.402;2022-08-11T02:42:23;95441.56;;;19.61;91.96
13029;BME280;6581;42.662;23.402;2022-08-11T02:45:08;95435.53;;;19.53;92.67
13029;BME280;6581;42.662;23.402;2022-08-11T02:47:45;95426.00;;;19.48;92.37
13029;BME280;6581;42.662;23.402;2022-08-11T02:50:39;95434.50;;;19.47;92.66
13029;BME280;6581;42.662;23.402;2022-08-11T02:53:12;95432.66;;;19.40;92.77
13029;BME280;6581;42.662;23.402;2022-08-11T02:55:53;95435.47;;;19.33;93.18
13029;BME280;6581;42.662;23.402;2022-08-11T02:58:32;95436.94;;;19.38;93.28
13029;BME280;6581;42.662;23.402;2022-08-11T03:01:11;95445.09;;;19.31;93.70
13029;BME280;6581;42.662;23.402;2022-08-11T03:03:47;95439.31;;;19.32;94.28
13029;BME280;6581;42.662;23.402;2022-08-11T03:06:28;95440.09;;;19.33;94.13
13029;BME280;6581;42.662;23.402;2022-08-11T03:09:04;95441.31;;;19.28;94.54
13029;BME280;6581;42.662;23.402;2022-08-11T03:11:50;95439.41;;;19.29;94.57
13029;BME280;6581;42.662;23.402;2022-08-11T03:14:45;95444.00;;;19.28;94.38
13029;BME280;6581;42.662;23.402;2022-08-11T03:17:36;95441.72;;;19.27;93.99
13029;BME280;6581;42.662;23.402;2022-08-11T03:20:30;95446.75;;;19.25;94.50
13029;BME280;6581;42.662;23.402;2022-08-11T03:23:05;95446.03;;;19.21;94.40
13029;BME280;6581;42.662;23.402;2022-08-11T03:25:44;95449.13;;;19.19;94.17
13029;BME280;6581;42.662;23.402;2022-08-11T03:28:23;95437.22;;;19.20;94.30
13029;BME280;6581;42.662;23.402;2022-08-11T03:31:00;95443.78;;;19.19;94.19
13029;BME280;6581;42.662;23.402;2022-08-11T03:33:37;95443.88;;;19.12;93.99
13029;BME280;6581;42.662;23.402;2022-08-11T03:37:03;95443.88;;;19.12;93.82
13029;BME280;6581;42.662;23.402;2022-08-11T03:39:41;95453.50;;;19.10;93.74
13029;BME280;6581;42.662;23.402;2022-08-11T03:42:19;95450.88;;;19.06;93.83
13029;BME280;6581;42.662;23.402;2022-08-11T03:44:55;95446.75;;;19.01;93.95
13029;BME280;6581;42.662;23.402;2022-08-11T03:47:36;95450.69;;;18.93;94.39
13029;BME280;6581;42.662;23.402;2022-08-11T03:50:20;95451.91;;;18.89;94.62
13029;BME280;6581;42.662;23.402;2022-08-11T03:53:04;95455.00;;;18.87;95.13
13029;BME280;6581;42.662;23.402;2022-08-11T03:55:53;95452.88;;;18.75;95.44
13029;BME280;6581;42.662;23.402;2022-08-11T03:58:37;95457.19;;;18.69;95.59
13029;BME280;6581;42.662;23.402;2022-08-11T04:17:16;95454.41;;;18.76;95.68
13029;BME280;6581;42.662;23.402;2022-08-11T04:20:17;95459.66;;;18.83;97.19
13029;BME280;6581;42.662;23.402;2022-08-11T04:22:55;95452.56;;;18.96;98.84
13029;BME280;6581;42.662;23.402;2022-08-11T04:28:39;95465.03;;;19.07;95.16
13029;BME280;6581;42.662;23.402;2022-08-11T04:44:27;95453.72;;;19.45;92.43
13029;BME280;6581;42.662;23.402;2022-08-11T04:47:18;95460.28;;;19.41;92.17
13029;BME280;6581;42.662;23.402;2022-08-11T04:50:18;95462.75;;;19.55;92.07
13029;BME280;6581;42.662;23.402;2022-08-11T04:53:35;95463.06;;;19.61;91.52
13029;BME280;6581;42.662;23.402;2022-08-11T04:56:27;95473.59;;;19.71;90.96
13029;BME280;6581;42.662;23.402;2022-08-11T04:59:52;95470.28;;;19.64;89.60
13029;BME280;6581;42.662;23.402;2022-08-11T05:03:02;95469.81;;;19.69;89.42
13029;BME280;6581;42.662;23.402;2022-08-11T05:06:00;95460.84;;;19.75;89.30
13029;BME280;6581;42.662;23.402;2022-08-11T05:09:01;95457.63;;;19.84;89.09
13029;BME280;6581;42.662;23.402;2022-08-11T05:12:01;95456.44;;;19.85;89.11
13029;BME280;6581;42.662;23.402;2022-08-11T05:14:37;95456.66;;;19.74;89.68
13029;BME280;6581;42.662;23.402;2022-08-11T05:17:34;95463.06;;;19.80;90.10
13029;BME280;6581;42.662;23.402;2022-08-11T05:20:24;95458.34;;;19.88;90.66
13029;BME280;6581;42.662;23.402;2022-08-11T05:23:10;95458.59;;;19.93;89.19
13029;BME280;6581;42.662;23.402;2022-08-11T05:25:58;95461.63;;;19.96;89.26
13029;BME280;6581;42.662;23.402;2022-08-11T05:28:50;95455.84;;;19.97;88.90
13029;BME280;6581;42.662;23.402;2022-08-11T05:31:40;95460.59;;;20.09;88.52
13029;BME280;6581;42.662;23.402;2022-08-11T05:34:28;95449.75;;;20.13;88.67
13029;BME280;6581;42.662;23.402;2022-08-11T05:37:21;95457.78;;;20.36;87.82
13029;BME280;6581;42.662;23.402;2022-08-11T05:39:53;95456.81;;;20.46;86.96
13029;BME280;6581;42.662;23.402;2022-08-11T05:42:42;95456.72;;;20.50;86.64
13029;BME280;6581;42.662;23.402;2022-08-11T05:45:33;95460.59;;;20.49;86.26
13029;BME280;6581;42.662;23.402;2022-08-11T05:48:20;95468.53;;;20.56;85.54
13029;BME280;6581;42.662;23.402;2022-08-11T05:51:10;95463.31;;;20.65;86.12
13029;BME280;6581;42.662;23.402;2022-08-11T05:53:59;95462.44;;;20.71;84.57
13029;BME280;6581;42.662;23.402;2022-08-11T05:57:09;95447.78;;;20.72;84.42
13029;BME280;6581;42.662;23.402;2022-08-11T05:59:48;95453.31;;;20.65;84.34
13029;BME280;6581;42.662;23.402;2022-08-11T06:02:53;95451.91;;;20.77;84.48
13029;BME280;6581;42.662;23.402;2022-08-11T06:05:38;95463.03;;;20.79;84.06
13029;BME280;6581;42.662;23.402;2022-08-11T06:08:36;95461.41;;;20.65;84.22
13029;BME280;6581;42.662;23.402;2022-08-11T06:11:25;95460.84;;;20.54;84.72
13029;BME280;6581;42.662;23.402;2022-08-11T06:14:01;95449.22;;;20.77;83.75
13029;BME280;6581;42.662;23.402;2022-08-11T06:16:31;95455.09;;;20.72;83.85
13029;BME280;6581;42.662;23.402;2022-08-11T06:18:59;95458.56;;;20.89;84.11
13029;BME280;6581;42.662;23.402;2022-08-11T06:21:35;95443.69;;;21.00;84.11
13029;BME280;6581;42.662;23.402;2022-08-11T06:24:11;95446.97;;;21.08;83.25
13029;BME280;6581;42.662;23.402;2022-08-11T06:26:40;95445.91;;;21.21;82.92
13029;BME280;6581;42.662;23.402;2022-08-11T06:29:08;95444.25;;;21.40;82.47
13029;BME280;6581;42.662;23.402;2022-08-11T06:31:37;95447.47;;;21.51;81.66
13029;BME280;6581;42.662;23.402;2022-08-11T06:34:11;95447.47;;;21.51;79.09
13029;BME280;6581;42.662;23.402;2022-08-11T06:36:50;95445.88;;;21.54;78.55
13029;BME280;6581;42.662;23.402;2022-08-11T06:39:22;95449.41;;;21.51;79.07
13029;BME280;6581;42.662;23.402;2022-08-11T06:41:57;95444.50;;;21.62;79.68
13029;BME280;6581;42.662;23.402;2022-08-11T06:44:42;95451.13;;;21.74;79.74
13029;BME280;6581;42.662;23.402;2022-08-11T06:47:11;95457.94;;;21.94;77.11
13029;BME280;6581;42.662;23.402;2022-08-11T06:49:45;95453.34;;;21.91;75.52
13029;BME280;6581;42.662;23.402;2022-08-11T06:52:34;95453.03;;;21.89;74.41
13029;BME280;6581;42.662;23.402;2022-08-11T06:55:06;95445.94;;;21.95;73.87
13029;BME280;6581;42.662;23.402;2022-08-11T06:57:36;95443.50;;;22.14;74.46
13029;BME280;6581;42.662;23.402;2022-08-11T07:00:37;95440.88;;;22.26;72.06
13029;BME280;6581;42.662;23.402;2022-08-11T07:03:07;95443.34;;;22.33;71.36
13029;BME280;6581;42.662;23.402;2022-08-11T07:05:41;95447.34;;;22.41;70.41
13029;BME280;6581;42.662;23.402;2022-08-11T07:08:44;95448.03;;;22.58;70.28
13029;BME280;6581;42.662;23.402;2022-08-11T07:11:59;95451.56;;;22.55;69.74
13029;BME280;6581;42.662;23.402;2022-08-11T07:14:49;95453.19;;;22.52;69.17
13029;BME280;6581;42.662;23.402;2022-08-11T07:17:39;95451.75;;;22.89;67.82
13029;BME280;6581;42.662;23.402;2022-08-11T07:20:09;95456.81;;;23.13;67.83
13029;BME280;6581;42.662;23.402;2022-08-11T07:22:58;95457.28;;;23.58;65.44
13029;BME280;6581;42.662;23.402;2022-08-11T07:25:52;95458.69;;;24.06;62.76
13029;BME280;6581;42.662;23.402;2022-08-11T07:28:41;95453.56;;;24.73;60.56
13029;BME280;6581;42.662;23.402;2022-08-11T07:31:29;95452.88;;;25.31;58.94
13029;BME280;6581;42.662;23.402;2022-08-11T07:34:05;95450.94;;;27.01;55.83
13029;BME280;6581;42.662;23.402;2022-08-11T07:36:38;95451.41;;;27.80;49.98
13029;BME280;6581;42.662;23.402;2022-08-11T07:39:09;95449.69;;;29.09;46.98
13029;BME280;6581;42.662;23.402;2022-08-11T07:41:42;95453.00;;;28.84;46.07
13029;BME280;6581;42.662;23.402;2022-08-11T07:44:11;95449.06;;;29.75;42.43
13029;BME280;6581;42.662;23.402;2022-08-11T07:46:40;95449.78;;;30.16;40.72
13029;BME280;6581;42.662;23.402;2022-08-11T07:49:26;95449.09;;;32.05;37.21
13029;BME280;6581;42.662;23.402;2022-08-11T07:52:12;95442.25;;;31.62;36.50
13029;BME280;6581;42.662;23.402;2022-08-11T07:54:57;95451.69;;;32.26;36.10
13029;BME280;6581;42.662;23.402;2022-08-11T07:57:28;95448.25;;;32.70;34.10
13029;BME280;6581;42.662;23.402;2022-08-11T08:00:14;95445.97;;;32.46;34.46
13029;BME280;6581;42.662;23.402;2022-08-11T08:03:00;95446.13;;;32.09;35.72
13029;BME280;6581;42.662;23.402;2022-08-11T08:05:46;95446.25;;;32.98;33.51
13029;BME280;6581;42.662;23.402;2022-08-11T08:08:31;95450.34;;;33.66;31.87
13029;BME280;6581;42.662;23.402;2022-08-11T08:11:20;95436.47;;;34.05;31.47
13029;BME280;6581;42.662;23.402;2022-08-11T08:14:07;95446.47;;;33.06;33.03
13029;BME280;6581;42.662;23.402;2022-08-11T08:16:53;95446.72;;;32.46;33.32
13029;BME280;6581;42.662;23.402;2022-08-11T08:19:42;95444.22;;;32.37;33.12
13029;BME280;6581;42.662;23.402;2022-08-11T08:22:10;95431.59;;;31.81;33.86
13029;BME280;6581;42.662;23.402;2022-08-11T08:24:38;95440.06;;;31.29;35.77
13029;BME280;6581;42.662;23.402;2022-08-11T08:27:07;95435.53;;;30.32;37.22
13029;BME280;6581;42.662;23.402;2022-08-11T08:29:39;95430.28;;;29.07;39.47
13029;BME280;6581;42.662;23.402;2022-08-11T08:32:24;95428.47;;;28.69;41.20
13029;BME280;6581;42.662;23.402;2022-08-11T08:34:53;95427.13;;;28.06;42.38
13029;BME280;6581;42.662;23.402;2022-08-11T08:37:23;95426.09;;;27.65;43.08
13029;BME280;6581;42.662;23.402;2022-08-11T08:39:52;95420.19;;;27.43;43.85
13029;BME280;6581;42.662;23.402;2022-08-11T08:42:48;95422.94;;;26.35;45.85
13029;BME280;6581;42.662;23.402;2022-08-11T08:45:20;95414.38;;;25.54;47.98
13029;BME280;6581;42.662;23.402;2022-08-11T08:47:57;95420.97;;;25.53;50.81
13029;BME280;6581;42.662;23.402;2022-08-11T08:50:30;95416.66;;;25.74;49.06
13029;BME280;6581;42.662;23.402;2022-08-11T08:53:13;95416.78;;;25.89;48.33
13029;BME280;6581;42.662;23.402;2022-08-11T08:55:45;95421.31;;;25.83;47.38
13029;BME280;6581;42.662;23.402;2022-08-11T08:58:15;95418.13;;;26.02;46.29
13029;BME280;6581;42.662;23.402;2022-08-11T09:00:49;95419.19;;;25.96;47.78
13029;BME280;6581;42.662;23.402;2022-08-11T09:03:17;95413.59;;;26.09;48.63
13029;BME280;6581;42.662;23.402;2022-08-11T09:05:46;95409.47;;;26.40;47.63
13029;BME280;6581;42.662;23.402;2022-08-11T09:08:16;95404.16;;;26.55;47.09
13029;BME280;6581;42.662;23.402;2022-08-11T09:10:46;95403.69;;;26.99;46.57
13029;BME280;6581;42.662;23.402;2022-08-11T09:13:35;95403.63;;;27.31;45.40
13029;BME280;6581;42.662;23.402;2022-08-11T09:16:09;95405.19;;;27.23;46.80
13029;BME280;6581;42.662;23.402;2022-08-11T09:18:37;95398.59;;;27.39;45.46
13029;BME280;6581;42.662;23.402;2022-08-11T09:21:06;95403.16;;;27.09;45.65
13029;BME280;6581;42.662;23.402;2022-08-11T09:23:35;95405.03;;;27.03;45.56
13029;BME280;6581;42.662;23.402;2022-08-11T09:26:19;95396.53;;;26.68;46.13
13029;BME280;6581;42.662;23.402;2022-08-11T09:29:07;95389.44;;;26.71;45.34
13029;BME280;6581;42.662;23.402;2022-08-11T09:31:38;95392.13;;;26.89;45.68
13029;BME280;6581;42.662;23.402;2022-08-11T09:34:06;95390.50;;;27.30;45.90
13029;BME280;6581;42.662;23.402;2022-08-11T09:36:34;95392.34;;;27.24;45.44
13029;BME280;6581;42.662;23.402;2022-08-11T09:39:19;95392.81;;;27.46;45.42
13029;BME280;6581;42.662;23.402;2022-08-11T09:42:04;95391.06;;;26.86;45.20
13029;BME280;6581;42.662;23.402;2022-08-11T09:44:33;95380.94;;;26.87;46.12
13029;BME280;6581;42.662;23.402;2022-08-11T09:47:23;95381.25;;;26.47;44.57
13029;BME280;6581;42.662;23.402;2022-08-11T09:50:17;95376.13;;;26.40;45.01
13029;BME280;6581;42.662;23.402;2022-08-11T09:52:45;95379.31;;;26.38;45.39
13029;BME280;6581;42.662;23.402;2022-08-11T09:55:14;95367.66;;;26.47;46.19
13029;BME280;6581;42.662;23.402;2022-08-11T09:57:45;95372.25;;;26.65;46.19
13029;BME280;6581;42.662;23.402;2022-08-11T10:00:31;95375.94;;;26.53;47.09
13029;BME280;6581;42.662;23.402;2022-08-11T10:03:05;95362.91;;;26.24;48.04
13029;BME280;6581;42.662;23.402;2022-08-11T10:05:34;95368.03;;;26.13;49.53
13029;BME280;6581;42.662;23.402;2022-08-11T10:08:22;95367.00;;;26.01;49.50
13029;BME280;6581;42.662;23.402;2022-08-11T10:10:53;95358.63;;;26.41;50.26
13029;BME280;6581;42.662;23.402;2022-08-11T10:13:26;95345.53;;;26.63;46.30
13029;BME280;6581;42.662;23.402;2022-08-11T10:16:01;95346.81;;;26.86;46.51
13029;BME280;6581;42.662;23.402;2022-08-11T10:18:36;95360.25;;;26.89;45.03
13029;BME280;6581;42.662;23.402;2022-08-11T10:21:23;95353.03;;;26.77;47.06
13029;BME280;6581;42.662;23.402;2022-08-11T10:23:53;95351.03;;;26.87;48.15
13029;BME280;6581;42.662;23.402;2022-08-11T10:26:41;95357.34;;;26.93;48.69
13029;BME280;6581;42.662;23.402;2022-08-11T10:29:20;95352.31;;;27.01;48.30
13029;BME280;6581;42.662;23.402;2022-08-11T10:32:05;95350.88;;;27.14;47.87
13029;BME280;6581;42.662;23.402;2022-08-11T10:34:53;95357.25;;;27.35;46.71
13029;BME280;6581;42.662;23.402;2022-08-11T10:37:22;95353.88;;;27.40;47.12
13029;BME280;6581;42.662;23.402;2022-08-11T10:40:17;95353.19;;;27.30;45.14
13029;BME280;6581;42.662;23.402;2022-08-11T10:43:12;95349.34;;;27.13;46.97
13029;BME280;6581;42.662;23.402;2022-08-11T10:45:41;95343.06;;;27.31;45.34
13029;BME280;6581;42.662;23.402;2022-08-11T10:48:29;95340.66;;;26.76;46.72
13029;BME280;6581;42.662;23.402;2022-08-11T10:50:59;95341.25;;;27.04;46.63
13029;BME280;6581;42.662;23.402;2022-08-11T10:53:42;95343.41;;;27.24;45.17
13029;BME280;6581;42.662;23.402;2022-08-11T10:56:28;95333.25;;;26.77;45.68
13029;BME280;6581;42.662;23.402;2022-08-11T10:59:15;95328.03;;;26.97;43.92
13029;BME280;6581;42.662;23.402;2022-08-11T11:01:44;95323.88;;;27.11;43.80
13029;BME280;6581;42.662;23.402;2022-08-11T11:04:13;95336.81;;;27.16;44.05
13029;BME280;6581;42.662;23.402;2022-08-11T11:06:49;95328.38;;;27.14;42.63
13029;BME280;6581;42.662;23.402;2022-08-11T11:09:20;95333.41;;;27.06;43.09
13029;BME280;6581;42.662;23.402;2022-08-11T11:11:52;95321.78;;;27.06;43.14
13029;BME280;6581;42.662;23.402;2022-08-11T11:14:40;95328.97;;;27.32;43.52
13029;BME280;6581;42.662;23.402;2022-08-11T11:17:27;95335.88;;;27.43;43.55
13029;BME280;6581;42.662;23.402;2022-08-11T11:20:19;95329.53;;;27.60;44.11
13029;BME280;6581;42.662;23.402;2022-08-11T11:22:55;95329.28;;;27.58;43.26
13029;BME280;6581;42.662;23.402;2022-08-11T11:28:48;95336.75;;;27.49;43.58
13029;BME280;6581;42.662;23.402;2022-08-11T11:31:30;95336.63;;;27.43;44.34
13029;BME280;6581;42.662;23.402;2022-08-11T11:34:11;95350.22;;;27.67;43.58
13029;BME280;6581;42.662;23.402;2022-08-11T11:37:04;95331.31;;;27.25;46.39
13029;BME280;6581;42.662;23.402;2022-08-11T11:39:34;95338.59;;;26.95;48.13
13029;BME280;6581;42.662;23.402;2022-08-11T11:42:05;95347.44;;;26.81;48.27
13029;BME280;6581;42.662;23.402;2022-08-11T11:44:37;95323.44;;;26.46;49.44
13029;BME280;6581;42.662;23.402;2022-08-11T11:47:05;95324.94;;;26.06;49.75
13029;BME280;6581;42.662;23.402;2022-08-11T11:49:34;95323.78;;;25.88;50.81
13029;BME280;6581;42.662;23.402;2022-08-11T11:52:06;95317.59;;;25.88;49.53
13029;BME280;6581;42.662;23.402;2022-08-11T11:54:35;95319.97;;;25.95;49.48
13029;BME280;6581;42.662;23.402;2022-08-11T11:57:03;95314.47;;;26.13;47.82
13029;BME280;6581;42.662;23.402;2022-08-11T11:59:47;95311.97;;;26.52;47.87
13029;BME280;6581;42.662;23.402;2022-08-11T12:02:36;95321.03;;;26.49;47.25
13029;BME280;6581;42.662;23.402;2022-08-11T12:05:07;95316.81;;;26.48;47.28
13029;BME280;6581;42.662;23.402;2022-08-11T12:07:36;95317.78;;;26.59;47.96
13029;BME280;6581;42.662;23.402;2022-08-11T12:10:23;95319.81;;;26.50;47.17
13029;BME280;6581;42.662;23.402;2022-08-11T12:12:51;95315.69;;;26.54;45.86
13029;BME280;6581;42.662;23.402;2022-08-11T12:15:36;95311.06;;;26.45;47.21
13029;BME280;6581;42.662;23.402;2022-08-11T12:18:04;95305.41;;;26.67;46.64
13029;BME280;6581;42.662;23.402;2022-08-11T12:20:32;95301.47;;;26.92;46.45
13029;BME280;6581;42.662;23.402;2022-08-11T12:22:59;95297.28;;;26.82;46.24
13029;BME280;6581;42.662;23.402;2022-08-11T12:25:46;95311.03;;;26.87;46.80
13029;BME280;6581;42.662;23.402;2022-08-11T12:29:10;95301.59;;;26.98;46.21
13029;BME280;6581;42.662;23.402;2022-08-11T12:31:39;95301.94;;;26.90;46.67
13029;BME280;6581;42.662;23.402;2022-08-11T12:34:08;95298.66;;;26.54;48.54
13029;BME280;6581;42.662;23.402;2022-08-11T12:36:38;95299.53;;;26.27;48.45
13029;BME280;6581;42.662;23.402;2022-08-11T12:39:09;95311.22;;;26.00;50.12
13029;BME280;6581;42.662;23.402;2022-08-11T12:41:39;95305.81;;;25.91;51.26
13029;BME280;6581;42.662;23.402;2022-08-11T12:44:26;95310.34;;;25.85;50.68
13029;BME280;6581;42.662;23.402;2022-08-11T12:47:16;95312.16;;;25.88;49.97
13029;BME280;6581;42.662;23.402;2022-08-11T12:49:47;95311.81;;;26.04;49.44
13029;BME280;6581;42.662;23.402;2022-08-11T12:52:36;95321.97;;;26.36;49.68
13029;BME280;6581;42.662;23.402;2022-08-11T12:55:11;95318.47;;;26.45;49.15
13029;BME280;6581;42.662;23.402;2022-08-11T12:58:01;95316.75;;;26.15;49.36
13029;BME280;6581;42.662;23.402;2022-08-11T13:00:43;95311.94;;;26.10;53.23
13029;BME280;6581;42.662;23.402;2022-08-11T13:03:28;95309.78;;;26.32;52.23
13029;BME280;6581;42.662;23.402;2022-08-11T13:06:13;95310.75;;;26.11;53.92
13029;BME280;6581;42.662;23.402;2022-08-11T13:08:41;95338.53;;;25.87;54.44
13029;BME280;6581;42.662;23.402;2022-08-11T13:11:09;95327.06;;;25.92;56.03
13029;BME280;6581;42.662;23.402;2022-08-11T13:13:57;95327.84;;;25.93;54.98
13029;BME280;6581;42.662;23.402;2022-08-11T13:16:27;95329.50;;;25.27;57.02
13029;BME280;6581;42.662;23.402;2022-08-11T13:18:56;95326.03;;;25.26;55.77
13029;BME280;6581;42.662;23.402;2022-08-11T13:21:27;95315.66;;;25.15;55.73
13029;BME280;6581;42.662;23.402;2022-08-11T13:24:21;95309.75;;;25.08;54.51
13029;BME280;6581;42.662;23.402;2022-08-11T13:26:49;95306.00;;;25.05;54.71
13029;BME280;6581;42.662;23.402;2022-08-11T13:29:20;95304.81;;;25.25;54.86
13029;BME280;6581;42.662;23.402;2022-08-11T13:31:48;95298.94;;;25.17;55.23
13029;BME280;6581;42.662;23.402;2022-08-11T13:34:17;95310.53;;;25.27;53.66
13029;BME280;6581;42.662;23.402;2022-08-11T13:36:47;95307.81;;;25.27;52.93
13029;BME280;6581;42.662;23.402;2022-08-11T13:39:16;95295.78;;;25.37;52.43
13029;BME280;6581;42.662;23.402;2022-08-11T13:41:44;95294.09;;;25.57;51.79
13029;BME280;6581;42.662;23.402;2022-08-11T13:44:15;95289.41;;;25.76;51.22
13029;BME280;6581;42.662;23.402;2022-08-11T13:46:45;95288.84;;;26.23;47.21
13029;BME280;6581;42.662;23.402;2022-08-11T13:49:15;95284.13;;;26.33;46.54
13029;BME280;6581;42.662;23.402;2022-08-11T13:51:43;95287.78;;;26.54;46.46
13029;BME280;6581;42.662;23.402;2022-08-11T13:54:15;95285.63;;;26.67;44.75
13029;BME280;6581;42.662;23.402;2022-08-11T13:56:46;95285.84;;;26.78;44.43
13029;BME280;6581;42.662;23.402;2022-08-11T13:59:14;95292.25;;;26.66;44.11
13029;BME280;6581;42.662;23.402;2022-08-11T14:01:51;95285.63;;;26.67;44.04
13029;BME280;6581;42.662;23.402;2022-08-11T14:04:22;95277.00;;;26.68;43.19
13029;BME280;6581;42.662;23.402;2022-08-11T14:06:53;95276.09;;;26.71;43.12
13029;BME280;6581;42.662;23.402;2022-08-11T14:09:27;95283.44;;;26.80;43.66
13029;BME280;6581;42.662;23.402;2022-08-11T14:12:00;95280.72;;;27.04;44.86
13029;BME280;6581;42.662;23.402;2022-08-11T14:14:59;95284.53;;;26.97;42.04
13029;BME280;6581;42.662;23.402;2022-08-11T14:17:29;95279.97;;;27.03;42.11
13029;BME280;6581;42.662;23.402;2022-08-11T14:20:00;95273.72;;;26.88;42.80
13029;BME280;6581;42.662;23.402;2022-08-11T14:22:30;95264.75;;;26.97;43.23
13029;BME280;6581;42.662;23.402;2022-08-11T14:24:58;95269.25;;;27.00;42.12
13029;BME280;6581;42.662;23.402;2022-08-11T14:27:25;95263.28;;;27.10;41.89
13029;BME280;6581;42.662;23.402;2022-08-11T14:30:12;95278.03;;;27.18;40.69
13029;BME280;6581;42.662;23.402;2022-08-11T14:33:00;95264.34;;;27.27;40.15
13029;BME280;6581;42.662;23.402;2022-08-11T14:35:27;95275.81;;;27.46;40.65
13029;BME280;6581;42.662;23.402;2022-08-11T14:37:56;95268.81;;;27.40;40.99
13029;BME280;6581;42.662;23.402;2022-08-11T14:40:24;95269.63;;;27.46;41.89
13029;BME280;6581;42.662;23.402;2022-08-11T14:43:09;95269.44;;;27.34;41.69
13029;BME280;6581;42.662;23.402;2022-08-11T14:45:55;95264.69;;;27.44;41.16
13029;BME280;6581;42.662;23.402;2022-08-11T14:48:42;95270.72;;;27.48;41.43
13029;BME280;6581;42.662;23.402;2022-08-11T14:51:10;95260.78;;;27.74;40.94
13029;BME280;6581;42.662;23.402;2022-08-11T14:53:37;95260.97;;;27.86;40.81
13029;BME280;6581;42.662;23.402;2022-08-11T14:56:05;95255.69;;;27.82;41.83
13029;BME280;6581;42.662;23.402;2022-08-11T14:58:49;95267.63;;;27.70;41.99
13029;BME280;6581;42.662;23.402;2022-08-11T15:01:17;95254.41;;;27.63;41.73
13029;BME280;6581;42.662;23.402;2022-08-11T15:04:03;95263.06;;;27.38;42.95